Time;durP1;ratioP1;P1;durP2;ratioP2;P2;SDS_P1;SDS_P2;PMS_P1;PMS_P2;Temp;Humidity;BMP_temperature;BMP_pressure;BME280_temperature;BME280_humidity;BME280_pressure;Samples;Min_cycle;Max_cycle;Signal;HPM_P1;HPM_P2
2023/04/14 00:00:35;;;;;;;9.70;2.63;;;;;;;5.54;nan;100732.09;5074593;28;20060;-45
2023/04/14 00:03:01;;;;;;;11.57;3.85;;;;;;;5.03;nan;100652.72;5073072;28;20041;-43
2023/04/14 00:05:30;;;;;;;10.32;3.30;;;;;;;5.02;nan;100670.13;5072966;28;20044;-45
2023/04/14 00:07:56;;;;;;;7.40;2.75;;;;;;;5.03;nan;100692.72;5073398;28;20032;-43
2023/04/14 00:10:22;;;;;;;12.57;3.35;;;;;;;5.18;nan;100733.41;5072511;28;20474;-43
2023/04/14 00:12:47;;;;;;;9.20;3.20;;;;;;;4.96;nan;100722.34;5071571;28;20025;-41
2023/04/14 00:15:13;;;;;;;14.02;2.92;;;;;;;4.94;nan;100739.78;5074219;28;20036;-42
2023/04/14 00:17:38;;;;;;;12.05;3.00;;;;;;;4.58;nan;100676.75;5074326;28;20040;-46
2023/04/14 00:20:04;;;;;;;10.63;2.88;;;;;;;4.82;nan;100731.22;5073195;28;20037;-43
2023/04/14 00:22:30;;;;;;;13.38;4.03;;;;;;;4.80;nan;100738.19;5074144;28;20479;-42
2023/04/14 00:24:55;;;;;;;8.85;2.75;;;;;;;4.67;nan;100723.59;5073317;28;20044;-44
2023/04/14 00:27:20;;;;;;;8.75;2.75;;;;;;;4.69;nan;100735.72;5073517;28;20075;-44
2023/04/14 00:29:46;;;;;;;16.20;2.92;;;;;;;4.64;nan;100745.31;5074264;28;20083;-45
2023/04/14 00:32:11;;;;;;;10.20;3.08;;;;;;;4.61;nan;100734.06;5089549;28;20486;-44
2023/04/14 00:34:37;;;;;;;13.00;2.97;;;;;;;4.55;nan;100737.59;5074201;28;20056;-46
2023/04/14 00:37:02;;;;;;;14.85;3.72;;;;;;;4.51;nan;100735.88;5072068;28;20032;-42
2023/04/14 00:39:27;;;;;;;9.80;3.28;;;;;;;4.46;nan;100737.69;5074156;28;20036;-42
2023/04/14 00:41:53;;;;;;;6.80;2.58;;;;;;;4.39;nan;100736.00;5074096;28;20041;-44
2023/04/14 00:44:18;;;;;;;7.32;2.72;;;;;;;4.30;nan;100730.88;5074123;28;20036;-45
2023/04/14 00:46:44;;;;;;;15.10;3.53;;;;;;;4.29;nan;100742.19;5073936;28;20490;-42
2023/04/14 00:49:10;;;;;;;15.70;3.70;;;;;;;4.27;nan;100741.31;5071600;28;20294;-46
2023/04/14 00:51:35;;;;;;;14.55;3.13;;;;;;;3.99;nan;100706.81;5072125;28;20036;-44
2023/04/14 00:54:08;;;;;;;8.45;2.83;;;;;;;4.17;nan;100747.50;5072391;28;20040;-45
2023/04/14 00:56:33;;;;;;;7.32;2.65;;;;;;;4.14;nan;100752.72;5089133;28;20040;-45
2023/04/14 00:59:00;;;;;;;12.25;3.33;;;;;;;4.12;nan;100752.72;5073514;28;20032;-42
2023/04/14 01:01:29;;;;;;;10.55;3.30;;;;;;;3.59;nan;100667.16;5072531;28;20043;-43
2023/04/14 01:03:56;;;;;;;19.88;4.18;;;;;;;3.49;nan;100675.06;5073395;28;20024;-43
2023/04/14 01:06:21;;;;;;;8.13;2.85;;;;;;;4.00;nan;100749.34;5071862;28;20080;-41
2023/04/14 01:08:50;;;;;;;11.15;3.38;;;;;;;3.91;nan;100751.13;5072386;28;20456;-45
2023/04/14 01:11:18;;;;;;;8.68;3.25;;;;;;;3.80;nan;100745.13;5072484;28;20523;-44
2023/04/14 01:13:53;;;;;;;9.27;3.10;;;;;;;3.42;nan;100688.09;5072257;28;20036;-44
2023/04/14 01:16:26;;;;;;;8.30;2.80;;;;;;;3.85;nan;100758.97;5071675;28;20471;-47
2023/04/14 01:19:25;;;;;;;11.85;3.17;;;;;;;3.83;nan;100765.06;5070807;28;20032;-48
2023/04/14 01:21:54;;;;;;;11.65;3.13;;;;;;;3.77;nan;100765.09;5073001;28;20506;-42
2023/04/14 01:24:35;;;;;;;12.23;2.72;;;;;;;3.73;nan;100755.59;5070497;28;20029;-46
2023/04/14 01:27:10;;;;;;;12.90;3.17;;;;;;;3.54;nan;100728.81;5072950;28;20028;-44
2023/04/14 01:30:17;;;;;;;14.43;3.22;;;;;;;3.65;nan;100763.44;5070654;28;20123;-44
2023/04/14 01:32:44;;;;;;;12.43;3.40;;;;;;;3.38;nan;100714.16;5048744;28;20037;-47
2023/04/14 01:35:19;;;;;;;10.93;3.00;;;;;;;2.94;nan;100664.09;5071395;28;20029;-46
2023/04/14 01:37:51;;;;;;;11.55;3.92;;;;;;;3.44;nan;100741.88;5069398;28;20038;-44
2023/04/14 01:40:18;;;;;;;18.10;4.03;;;;;;;3.52;nan;100750.50;5072574;28;20041;-47
2023/04/14 01:42:51;;;;;;;11.82;3.25;;;;;;;3.10;nan;100692.59;5070603;28;20033;-44
2023/04/14 01:45:26;;;;;;;10.18;3.20;;;;;;;2.51;nan;100590.63;5088297;28;20029;-47
2023/04/14 01:47:51;;;;;;;11.40;3.00;;;;;;;3.09;nan;100682.22;5070237;28;20116;-42
2023/04/14 01:50:18;;;;;;;9.38;3.08;;;;;;;3.41;nan;100761.81;5070985;28;20074;-43
2023/04/14 01:52:46;;;;;;;12.10;3.28;;;;;;;3.34;nan;100751.47;5070774;28;20037;-44
2023/04/14 01:55:14;;;;;;;9.65;3.45;;;;;;;3.40;nan;100747.09;5071253;28;20044;-42
2023/04/14 01:57:41;;;;;;;11.73;2.67;;;;;;;3.34;nan;100748.88;5070227;28;20052;-45
2023/04/14 02:00:07;;;;;;;11.45;3.38;;;;;;;3.29;nan;100740.22;5086944;28;20506;-44
2023/04/14 02:02:33;;;;;;;12.27;3.17;;;;;;;3.33;nan;100749.72;5071417;28;20039;-41
2023/04/14 02:04:59;;;;;;;13.93;3.50;;;;;;;3.04;nan;100691.75;5071551;28;20036;-43
2023/04/14 02:07:25;;;;;;;11.38;3.05;;;;;;;3.39;nan;100757.50;5068980;28;20039;-43
2023/04/14 02:09:51;;;;;;;9.55;2.97;;;;;;;3.43;nan;100754.03;5071795;28;20037;-41
2023/04/14 02:12:18;;;;;;;11.15;3.25;;;;;;;2.98;nan;100669.25;5070345;28;20059;-44
2023/04/14 02:14:44;;;;;;;10.75;2.88;;;;;;;3.49;nan;100753.13;5069917;28;20534;-45
2023/04/14 02:17:10;;;;;;;7.40;2.97;;;;;;;3.46;nan;100755.75;5071300;28;20460;-43
2023/04/14 02:19:36;;;;;;;8.63;2.35;;;;;;;3.33;nan;100736.72;5070750;28;20032;-40
2023/04/14 02:22:02;;;;;;;11.60;2.88;;;;;;;3.46;nan;100773.97;5070775;28;20029;-43
2023/04/14 02:24:27;;;;;;;8.52;2.80;;;;;;;3.04;nan;100692.63;5072240;28;20036;-45
2023/04/14 02:26:57;;;;;;;11.00;3.20;;;;;;;3.11;nan;100704.75;5070810;28;20120;-48
2023/04/14 02:29:24;;;;;;;20.02;3.22;;;;;;;3.51;nan;100767.00;5071314;28;20040;-42
2023/04/14 02:32:03;;;;;;;11.13;3.25;;;;;;;3.10;nan;100692.59;5038521;28;20537;-41
2023/04/14 02:34:46;;;;;;;11.68;3.30;;;;;;;3.51;nan;100767.84;5067288;28;20083;-44
2023/04/14 02:37:17;;;;;;;11.35;3.67;;;;;;;3.15;nan;100688.25;5051732;28;20123;-40
2023/04/14 02:39:46;;;;;;;13.23;3.88;;;;;;;3.53;nan;100767.88;5050252;28;20102;-43
2023/04/14 02:42:15;;;;;;;10.07;3.05;;;;;;;3.51;nan;100780.88;5058785;28;20032;-45
2023/04/14 02:44:48;;;;;;;14.77;4.45;;;;;;;3.46;nan;100754.00;5072023;28;20036;-41
2023/04/14 02:47:26;;;;;;;6.65;2.75;;;;;;;3.46;nan;100773.97;5071586;28;20498;-44
2023/04/14 02:49:52;;;;;;;11.63;3.38;;;;;;;3.16;nan;100715.13;5068127;28;20077;-44
2023/04/14 02:52:18;;;;;;;10.57;3.50;;;;;;;3.38;nan;100755.78;5087267;28;20039;-40
2023/04/14 02:54:45;;;;;;;11.52;3.22;;;;;;;3.35;nan;100766.22;5086312;28;20040;-43
2023/04/14 02:57:10;;;;;;;11.00;3.22;;;;;;;2.95;nan;100691.81;5069904;28;20029;-42
2023/04/14 02:59:36;;;;;;;13.57;3.70;;;;;;;2.93;nan;100683.16;5070622;28;20494;-48
2023/04/14 03:02:03;;;;;;;10.30;3.47;;;;;;;3.27;nan;100736.75;5071148;28;20088;-41
2023/04/14 03:04:31;;;;;;;7.70;3.88;;;;;;;3.02;nan;100683.13;5070745;28;20059;-47
2023/04/14 03:06:58;;;;;;;11.05;3.83;;;;;;;3.47;nan;100755.75;5070975;28;20043;-46
2023/04/14 03:09:24;;;;;;;14.30;3.45;;;;;;;3.48;nan;100761.78;5086909;28;20471;-52
2023/04/14 03:11:50;;;;;;;14.13;4.20;;;;;;;3.46;nan;100759.22;5070417;28;20132;-43
2023/04/14 03:14:17;;;;;;;11.85;3.58;;;;;;;3.42;nan;100760.97;5072157;28;20124;-45
2023/04/14 03:16:42;;;;;;;15.45;3.88;;;;;;;2.95;nan;100690.06;5053595;28;20406;-42
2023/04/14 03:19:09;;;;;;;13.85;3.70;;;;;;;3.37;nan;100761.84;5086533;28;20064;-42
2023/04/14 03:21:35;;;;;;;11.93;4.28;;;;;;;3.41;nan;100764.44;5070163;28;20039;-41
2023/04/14 03:24:00;;;;;;;16.70;4.18;;;;;;;2.96;nan;100689.22;5075381;28;20107;-44
2023/04/14 03:29:01;;;;;;;15.90;4.43;;;;;;;3.39;nan;100767.91;5073895;28;20028;-42
2023/04/14 03:31:32;;;;;;;14.57;4.90;;;;;;;2.91;nan;100695.31;5071729;28;20033;-45
2023/04/14 03:33:59;;;;;;;12.70;4.10;;;;;;;3.35;nan;100774.88;5057190;28;20037;-45
2023/04/14 03:36:34;;;;;;;15.38;4.93;;;;;;;3.31;nan;100786.16;5072749;28;20064;-47
2023/04/14 03:39:01;;;;;;;11.70;5.20;;;;;;;3.30;nan;100776.63;5073107;28;20029;-45
2023/04/14 03:41:28;;;;;;;12.82;4.50;;;;;;;3.23;nan;100767.13;5074964;28;20111;-45
2023/04/14 03:43:55;;;;;;;9.10;4.50;;;;;;;2.86;nan;100746.44;5074058;28;20029;-48
2023/04/14 03:46:25;;;;;;;14.15;4.13;;;;;;;2.87;nan;100732.56;5074342;28;20032;-46
2023/04/14 03:48:51;;;;;;;12.68;4.63;;;;;;;3.03;nan;100774.13;5090266;28;20475;-43
2023/04/14 03:51:18;;;;;;;14.65;4.65;;;;;;;1.99;nan;100592.47;5090576;28;20496;-46
2023/04/14 03:53:44;;;;;;;14.63;4.65;;;;;;;2.97;nan;100762.88;5072498;28;20041;-43
2023/04/14 03:56:12;;;;;;;17.98;4.75;;;;;;;2.66;nan;100715.28;5074038;28;20043;-45
2023/04/14 03:58:38;;;;;;;18.80;4.57;;;;;;;2.93;nan;100779.34;5074155;28;20064;-45
2023/04/14 04:01:04;;;;;;;17.60;5.00;;;;;;;2.92;nan;100770.66;5074112;28;20355;-47
2023/04/14 04:03:32;;;;;;;15.43;5.00;;;;;;;2.95;nan;100773.25;5073341;28;20434;-46
2023/04/14 04:05:57;;;;;;;21.40;5.25;;;;;;;2.84;nan;100760.31;5072043;28;20040;-46
2023/04/14 04:08:23;;;;;;;15.75;5.57;;;;;;;2.49;nan;100715.31;5074056;28;20039;-44
2023/04/14 04:10:49;;;;;;;15.95;5.22;;;;;;;2.71;nan;100752.53;5072306;28;20483;-45
2023/04/14 04:13:16;;;;;;;14.60;6.28;;;;;;;2.30;nan;100698.06;5073274;28;20112;-44
2023/04/14 04:15:42;;;;;;;11.95;5.22;;;;;;;2.33;nan;100699.78;5090080;28;20029;-45
2023/04/14 04:18:07;;;;;;;11.93;5.35;;;;;;;2.28;nan;100704.97;5087726;28;20400;-44
2023/04/14 04:20:36;;;;;;;15.60;6.07;;;;;;;2.68;nan;100788.94;5073895;28;20035;-42
2023/04/14 04:23:03;;;;;;;14.15;5.50;;;;;;;2.64;nan;100787.19;5073131;28;20074;-42
2023/04/14 04:25:28;;;;;;;18.38;6.25;;;;;;;2.59;nan;100788.94;5074206;28;20468;-43
2023/04/14 04:27:53;;;;;;;21.65;6.15;;;;;;;2.49;nan;100785.47;5073391;28;20061;-46
2023/04/14 04:30:21;;;;;;;18.00;5.68;;;;;;;2.34;nan;100763.81;5072272;28;20032;-44
2023/04/14 04:32:46;;;;;;;12.70;6.57;;;;;;;2.01;nan;100726.63;5073033;28;20034;-44
2023/04/14 04:35:13;;;;;;;22.33;6.88;;;;;;;2.05;nan;104279.00;5072022;28;20040;-45
2023/04/14 04:37:38;;;;;;;18.13;6.60;;;;;;;2.36;nan;100801.06;5088807;28;20396;-44
2023/04/14 04:40:06;;;;;;;15.45;6.47;;;;;;;2.15;nan;100761.25;5070244;28;20037;-44
2023/04/14 04:42:31;;;;;;;24.33;7.57;;;;;;;2.24;nan;100779.44;5069242;28;20029;-48
2023/04/14 04:44:56;;;;;;;15.02;7.40;;;;;;;2.40;nan;100795.00;5054166;28;20420;-43
2023/04/14 04:47:22;;;;;;;26.65;9.60;;;;;;;2.39;nan;100783.75;5053775;28;20403;-44
2023/04/14 04:49:47;;;;;;;23.70;8.63;;;;;;;1.88;nan;100724.88;5052434;28;20044;-46
2023/04/14 04:52:12;;;;;;;25.92;9.55;;;;;;;2.56;nan;100800.22;5053804;28;20108;-46
2023/04/14 04:54:38;;;;;;;24.83;9.65;;;;;;;2.28;nan;100737.00;5073572;28;20040;-44
2023/04/14 04:57:03;;;;;;;27.45;10.70;;;;;;;2.35;nan;100727.47;5071264;28;20044;-44
2023/04/14 04:59:28;;;;;;;24.85;10.38;;;;;;;2.56;nan;100750.84;5073291;28;20033;-45
2023/04/14 05:01:54;;;;;;;30.23;11.32;;;;;;;2.74;nan;100784.56;5072963;28;20522;-43
2023/04/14 05:04:20;;;;;;;32.38;10.93;;;;;;;2.80;nan;100810.56;5073404;28;20033;-41
2023/04/14 05:06:45;;;;;;;31.25;11.82;;;;;;;2.77;nan;100800.16;5072710;28;20079;-45
2023/04/14 05:09:11;;;;;;;39.33;12.32;;;;;;;2.86;nan;100804.47;5072135;28;20064;-41
2023/04/14 05:11:36;;;;;;;37.90;12.32;;;;;;;2.87;nan;100800.16;5073108;28;20060;-46
2023/04/14 05:14:02;;;;;;;26.85;11.38;;;;;;;2.96;nan;100806.22;5072011;28;20032;-49
2023/04/14 05:16:28;;;;;;;29.77;12.43;;;;;;;2.92;nan;100785.44;5071238;28;20041;-44
2023/04/14 05:18:54;;;;;;;29.80;12.93;;;;;;;3.05;nan;100813.13;5072505;28;20040;-43
2023/04/14 05:21:19;;;;;;;30.45;12.70;;;;;;;2.67;nan;100738.69;5068718;28;20058;-45
2023/04/14 05:23:45;;;;;;;26.58;12.90;;;;;;;3.11;nan;100805.31;5072597;28;20047;-43
2023/04/14 05:26:11;;;;;;;35.33;14.68;;;;;;;3.16;nan;100813.94;5072305;28;20036;-42
2023/04/14 05:28:39;;;;;;;34.38;13.35;;;;;;;3.08;nan;100795.78;5072691;28;20040;-43
2023/04/14 05:31:04;;;;;;;27.83;13.75;;;;;;;3.22;nan;100814.81;5069712;28;20548;-42
2023/04/14 05:33:29;;;;;;;29.17;13.70;;;;;;;2.90;nan;100742.94;5071422;28;20087;-44
2023/04/14 05:35:55;;;;;;;29.65;14.27;;;;;;;3.36;nan;100817.34;5072747;28;20032;-46
2023/04/14 05:38:20;;;;;;;24.25;13.05;;;;;;;3.39;nan;100823.41;5071482;28;20498;-44
2023/04/14 05:40:46;;;;;;;29.33;13.68;;;;;;;3.37;nan;100824.31;5062838;28;20740;-43
2023/04/14 05:43:13;;;;;;;26.08;13.60;;;;;;;3.19;nan;100775.81;5069934;28;20105;-42
2023/04/14 05:45:39;;;;;;;24.80;13.13;;;;;;;2.48;nan;100650.41;5087316;28;20063;-40
2023/04/14 05:48:04;;;;;;;20.83;12.77;;;;;;;3.18;nan;100768.03;5072531;28;20059;-42
2023/04/14 05:50:29;;;;;;;22.75;12.20;;;;;;;3.58;nan;100818.16;5066210;28;20119;-42
2023/04/14 05:52:55;;;;;;;25.80;12.35;;;;;;;3.55;nan;100807.75;5069081;28;20032;-43
2023/04/14 05:55:20;;;;;;;27.85;13.02;;;;;;;3.74;nan;100833.69;5071586;28;20043;-46
2023/04/14 05:57:46;;;;;;;22.17;11.73;;;;;;;3.76;nan;100824.16;5086207;28;20060;-43
2023/04/14 06:00:12;;;;;;;18.67;11.07;;;;;;;3.89;nan;100817.13;5069888;28;20035;-44
2023/04/14 06:02:38;;;;;;;19.83;11.30;;;;;;;3.53;nan;100745.31;5071416;28;20228;-43
2023/04/14 06:05:06;;;;;;;21.08;10.63;;;;;;;4.08;nan;100823.09;5072201;28;20070;-43
2023/04/14 06:07:34;;;;;;;18.50;9.63;;;;;;;3.76;nan;100753.84;5068460;28;20037;-46
2023/04/14 06:10:00;;;;;;;19.80;10.30;;;;;;;3.91;nan;100755.50;5069643;28;20387;-44
2023/04/14 06:12:26;;;;;;;19.27;10.52;;;;;;;4.42;nan;100827.19;5057299;28;20041;-45
2023/04/14 06:14:51;;;;;;;26.67;10.20;;;;;;;4.39;nan;100793.31;5050364;28;20032;-48
2023/04/14 06:17:16;;;;;;;18.50;9.52;;;;;;;4.63;nan;100819.19;5068578;28;20033;-43
2023/04/14 06:19:41;;;;;;;19.80;10.68;;;;;;;4.59;nan;100793.16;5071378;28;20036;-46
2023/04/14 06:22:10;;;;;;;16.33;9.13;;;;;;;4.61;nan;100781.00;5070641;28;20091;-46
2023/04/14 06:24:35;;;;;;;16.20;8.57;;;;;;;4.98;nan;100809.31;5071631;28;20033;-48
2023/04/14 06:27:03;;;;;;;15.63;8.70;;;;;;;5.11;nan;100815.25;5069986;28;20081;-41
2023/04/14 06:29:29;;;;;;;18.33;8.98;;;;;;;5.30;nan;100822.00;5052824;28;20419;-41
2023/04/14 06:31:55;;;;;;;18.25;9.10;;;;;;;5.29;nan;100808.97;5051740;28;20033;-46
2023/04/14 06:34:20;;;;;;;16.75;8.32;;;;;;;5.39;nan;100807.97;5071444;28;20147;-44
2023/04/14 06:36:46;;;;;;;11.63;8.93;;;;;;;5.22;nan;100742.94;5087407;28;20033;-46
2023/04/14 06:39:12;;;;;;;19.63;8.23;;;;;;;5.77;nan;100817.94;5071794;28;20033;-44
2023/04/14 06:41:37;;;;;;;16.55;9.32;;;;;;;5.88;nan;100826.53;5071921;28;20086;-43
2023/04/14 06:44:02;;;;;;;16.65;8.45;;;;;;;5.81;nan;100794.38;5071042;28;20387;-41
2023/04/14 06:46:28;;;;;;;12.35;7.63;;;;;;;5.81;nan;100794.38;5070573;28;20484;-45
2023/04/14 06:48:53;;;;;;;13.63;8.50;;;;;;;6.33;nan;100825.91;5071966;28;20079;-42
2023/04/14 06:51:18;;;;;;;15.07;7.43;;;;;;;6.43;nan;100792.59;5071865;28;20082;-46
2023/04/14 06:53:44;;;;;;;12.48;7.05;;;;;;;6.90;nan;100815.34;5070514;28;20033;-40
2023/04/14 06:56:09;;;;;;;14.35;7.40;;;;;;;7.06;nan;100767.06;5071673;28;20068;-44
2023/04/14 06:58:35;;;;;;;15.43;6.35;;;;;;;7.84;nan;100828.31;5075744;28;20090;-44
2023/04/14 07:01:01;;;;;;;12.15;6.40;;;;;;;8.01;nan;100767.66;5074691;28;20040;-48
2023/04/14 07:03:29;;;;;;;11.88;5.95;;;;;;;8.79;nan;100811.22;5075610;28;20036;-41
2023/04/14 07:06:01;;;;;;;12.52;6.35;;;;;;;9.30;nan;100832.66;5059031;28;20083;-43
2023/04/14 07:08:30;;;;;;;10.85;5.63;;;;;;;9.97;nan;100840.34;5074266;28;20036;-44
2023/04/14 07:10:59;;;;;;;12.45;6.32;;;;;;;9.89;nan;100815.19;5060085;28;20021;-42
2023/04/14 07:13:25;;;;;;;11.93;6.15;;;;;;;10.41;nan;100833.75;5054468;28;20033;-45
2023/04/14 07:15:50;;;;;;;10.68;5.55;;;;;;;10.85;nan;100837.56;5059692;28;20036;-46
2023/04/14 07:18:15;;;;;;;10.38;5.32;;;;;;;11.28;nan;100844.84;5075613;28;20037;-45
2023/04/14 07:20:41;;;;;;;9.32;5.50;;;;;;;11.52;nan;100854.53;5062270;28;20036;-47
2023/04/14 07:23:06;;;;;;;13.73;5.63;;;;;;;12.06;nan;100846.34;5088266;28;20043;-41
2023/04/14 07:25:34;;;;;;;7.70;5.25;;;;;;;11.94;nan;100769.50;5075192;28;20032;-41
2023/04/14 07:27:59;;;;;;;7.38;4.50;;;;;;;12.67;nan;100785.84;5075084;28;20028;-45
2023/04/14 07:30:26;;;;;;;8.80;5.15;;;;;;;13.10;nan;100853.63;5055163;28;20473;-45
2023/04/14 07:32:51;;;;;;;9.27;4.60;;;;;;;13.69;nan;100869.53;5053638;28;20071;-45
2023/04/14 07:35:16;;;;;;;10.25;5.05;;;;;;;13.11;nan;100805.97;5053701;28;20029;-46
2023/04/14 07:37:42;;;;;;;8.55;4.38;;;;;;;13.61;nan;100853.13;5056065;28;20043;-47
2023/04/14 07:40:07;;;;;;;9.00;5.13;;;;;;;13.79;nan;100857.59;5072368;28;20028;-43
2023/04/14 07:42:33;;;;;;;9.65;4.75;;;;;;;13.96;nan;100871.78;5073541;28;20445;-46
2023/04/14 07:44:58;;;;;;;10.75;4.65;;;;;;;13.98;nan;100866.44;5071332;28;20567;-45
2023/04/14 07:47:23;;;;;;;8.60;4.20;;;;;;;13.92;nan;100862.25;5072386;28;20037;-48
2023/04/14 07:49:49;;;;;;;9.88;4.45;;;;;;;13.32;nan;100810.34;5088248;28;20090;-42
2023/04/14 07:52:15;;;;;;;9.75;4.57;;;;;;;13.03;nan;100807.19;5072052;28;20045;-42
2023/04/14 07:54:40;;;;;;;8.45;4.28;;;;;;;13.47;nan;100846.69;5071869;28;20048;-43
2023/04/14 07:57:08;;;;;;;8.30;3.50;;;;;;;13.24;nan;100827.47;5071969;28;20037;-46
2023/04/14 07:59:34;;;;;;;6.93;3.78;;;;;;;13.26;nan;100862.59;5068972;28;20040;-46
2023/04/14 08:01:59;;;;;;;10.07;4.40;;;;;;;13.24;nan;100860.03;5061554;28;20037;-41
2023/04/14 08:04:25;;;;;;;7.55;3.70;;;;;;;13.63;nan;100865.34;5060936;28;20392;-44
2023/04/14 08:06:51;;;;;;;7.53;3.67;;;;;;;14.07;nan;100858.91;5066506;28;20516;-44
2023/04/14 08:09:16;;;;;;;7.10;3.47;;;;;;;14.73;nan;100850.50;5061928;28;20052;-45
2023/04/14 08:11:41;;;;;;;8.55;3.50;;;;;;;15.30;nan;100860.81;5055691;28;20064;-44
2023/04/14 08:14:07;;;;;;;7.90;3.72;;;;;;;15.72;nan;100855.97;5070894;28;20475;-45
2023/04/14 08:16:35;;;;;;;5.10;3.58;;;;;;;15.84;nan;100864.22;5071926;28;20032;-47
2023/04/14 08:19:01;;;;;;;6.60;3.28;;;;;;;16.62;nan;100864.31;5069488;28;20032;-47
2023/04/14 08:21:26;;;;;;;8.50;3.72;;;;;;;16.56;nan;100819.47;5060733;28;20041;-44
2023/04/14 08:23:52;;;;;;;7.53;3.17;;;;;;;16.31;nan;100804.06;5060843;28;20032;-45
2023/04/14 08:26:17;;;;;;;4.60;2.90;;;;;;;16.36;nan;100804.63;5061107;28;20120;-45
2023/04/14 08:28:43;;;;;;;6.57;2.80;;;;;;;16.65;nan;100851.72;5052260;28;20408;-46
2023/04/14 08:31:09;;;;;;;6.13;3.30;;;;;;;16.17;nan;100817.25;5063185;28;20028;-46
2023/04/14 08:33:34;;;;;;;7.07;3.20;;;;;;;16.41;nan;100836.25;5059357;28;20506;-49
2023/04/14 08:36:00;;;;;;;7.43;3.40;;;;;;;17.01;nan;100855.84;5065041;28;20040;-47
2023/04/14 08:38:25;;;;;;;8.05;3.10;;;;;;;17.08;nan;100818.16;5056105;28;20041;-49
2023/04/14 08:40:54;;;;;;;6.15;2.97;;;;;;;17.59;nan;100845.25;5055451;28;20056;-48
2023/04/14 08:43:20;;;;;;;5.07;2.67;;;;;;;17.38;nan;100803.00;5072624;28;20040;-46
2023/04/14 08:45:47;;;;;;;6.25;2.75;;;;;;;17.72;nan;100838.22;5072647;28;20064;-48
2023/04/14 08:48:15;;;;;;;6.28;3.08;;;;;;;17.07;nan;100795.19;5053989;28;20559;-43
2023/04/14 08:50:51;;;;;;;6.32;2.72;;;;;;;16.93;nan;100794.28;5071595;28;20039;-48
2023/04/14 08:53:17;;;;;;;6.10;2.65;;;;;;;17.15;nan;100842.59;5072102;28;20032;-46
2023/04/14 08:55:43;;;;;;;4.50;2.25;;;;;;;17.67;nan;100840.31;5071754;28;20032;-45
2023/04/14 08:58:11;;;;;;;3.83;2.00;;;;;;;17.64;nan;100797.91;5054330;28;20471;-44
2023/04/14 09:00:38;;;;;;;4.57;2.00;;;;;;;17.72;nan;100790.28;5071130;28;20483;-45
2023/04/14 09:03:04;;;;;;;5.30;2.08;;;;;;;18.07;nan;100809.41;5071942;28;20032;-46
2023/04/14 09:05:29;;;;;;;2.75;1.77;;;;;;;18.06;nan;100842.31;5070558;28;20107;-46
2023/04/14 09:07:55;;;;;;;5.30;2.15;;;;;;;18.10;nan;100842.00;5052451;28;20025;-44
2023/04/14 09:10:21;;;;;;;4.18;2.20;;;;;;;18.32;nan;100838.84;5070269;28;20050;-46
2023/04/14 09:12:47;;;;;;;4.45;1.90;;;;;;;18.17;nan;100837.16;5068036;28;20056;-44
2023/04/14 09:15:13;;;;;;;3.47;1.63;;;;;;;17.60;nan;100701.41;5071776;28;20049;-47
2023/04/14 09:17:38;;;;;;;5.30;1.60;;;;;;;18.27;nan;100780.50;5070609;28;20068;-47
2023/04/14 09:20:04;;;;;;;3.35;1.65;;;;;;;18.58;nan;100789.19;5070202;28;20127;-47
2023/04/14 09:22:30;;;;;;;5.93;1.80;;;;;;;18.73;nan;100834.38;5070190;28;20131;-46
2023/04/14 09:24:56;;;;;;;4.75;1.50;;;;;;;18.84;nan;100826.50;5071372;28;20067;-48
2023/04/14 09:27:21;;;;;;;6.68;2.00;;;;;;;19.22;nan;100831.94;5070001;28;20039;-46
2023/04/14 09:29:47;;;;;;;4.40;1.67;;;;;;;19.65;nan;100837.84;5071405;28;20476;-46
2023/04/14 09:32:12;;;;;;;4.22;1.55;;;;;;;19.67;nan;100805.72;5086044;28;20391;-51
2023/04/14 09:34:49;;;;;;;3.42;1.60;;;;;;;20.29;nan;100842.16;5069705;28;20032;-47
2023/04/14 09:37:15;;;;;;;4.72;1.58;;;;;;;19.42;nan;100779.88;5086692;28;20447;-45
2023/04/14 09:39:51;;;;;;;8.90;1.70;;;;;;;19.64;nan;100826.31;5070517;28;20064;-48
2023/04/14 09:42:17;;;;;;;3.60;1.52;;;;;;;19.59;nan;100823.13;5071347;28;20120;-50
2023/04/14 09:44:53;;;;;;;4.78;1.83;;;;;;;19.91;nan;100793.25;5070000;28;20059;-49
2023/04/14 09:47:19;;;;;;;2.83;1.38;;;;;;;19.59;nan;100783.06;5071250;28;20030;-46
2023/04/14 09:49:56;;;;;;;4.90;1.70;;;;;;;19.75;nan;100830.06;5069764;28;20448;-46
2023/04/14 09:52:22;;;;;;;3.28;1.63;;;;;;;20.22;nan;100830.19;5070160;28;20085;-47
2023/04/14 09:54:54;;;;;;;4.25;1.52;;;;;;;19.84;nan;100822.25;5069718;28;20060;-47
2023/04/14 09:57:25;;;;;;;4.43;1.63;;;;;;;19.78;nan;100805.81;5071263;28;20029;-47
2023/04/14 09:59:51;;;;;;;3.85;1.80;;;;;;;19.99;nan;100813.13;5069739;28;20037;-45
2023/04/14 10:02:16;;;;;;;4.22;2.05;;;;;;;20.35;nan;100806.09;5070992;28;20039;-47
2023/04/14 10:04:41;;;;;;;5.00;1.80;;;;;;;20.68;nan;100787.56;5053159;28;20110;-49
2023/04/14 10:07:07;;;;;;;2.50;1.63;;;;;;;21.31;nan;100800.56;5052979;28;20434;-48
2023/04/14 10:09:36;;;;;;;4.75;1.98;;;;;;;21.60;nan;100809.88;5070609;28;20484;-46
2023/04/14 10:12:14;;;;;;;6.13;2.30;;;;;;;21.62;nan;100805.25;5069459;28;20087;-47
2023/04/14 10:14:41;;;;;;;3.72;2.15;;;;;;;20.91;nan;100748.38;5070727;28;20028;-46
2023/04/14 10:17:07;;;;;;;4.03;1.75;;;;;;;20.74;nan;100806.69;5069486;28;20440;-50
2023/04/14 10:19:33;;;;;;;4.38;2.30;;;;;;;20.63;nan;100798.63;5070632;28;20113;-46
2023/04/14 10:21:58;;;;;;;6.70;2.60;;;;;;;20.75;nan;100797.69;5069420;28;20032;-45
2023/04/14 10:24:24;;;;;;;5.13;2.38;;;;;;;20.63;nan;100742.47;5069652;28;20035;-48
2023/04/14 10:26:51;;;;;;;3.70;1.92;;;;;;;20.79;nan;100787.63;5070818;28;20062;-47
2023/04/14 10:29:16;;;;;;;4.57;2.05;;;;;;;20.72;nan;100770.34;5086031;28;20107;-46
2023/04/14 10:32:04;;;;;;;5.45;2.28;;;;;;;20.33;nan;100787.53;5068882;28;20037;-48
2023/04/14 10:34:31;;;;;;;5.20;1.75;;;;;;;19.58;nan;100800.03;5070839;28;20063;-51
2023/04/14 10:37:11;;;;;;;4.80;1.58;;;;;;;18.57;nan;100775.00;5069120;28;20049;-45
2023/04/14 10:39:37;;;;;;;4.47;1.60;;;;;;;17.98;nan;100712.28;5069414;28;20037;-45
2023/04/14 10:42:02;;;;;;;6.15;1.67;;;;;;;19.04;nan;100794.00;5069297;28;20036;-46
2023/04/14 10:44:30;;;;;;;4.07;1.75;;;;;;;19.94;nan;100718.25;5070481;28;20029;-49
2023/04/14 10:46:57;;;;;;;4.15;1.63;;;;;;;21.16;nan;100769.66;5070406;28;20032;-50
2023/04/14 10:49:32;;;;;;;4.30;1.45;;;;;;;21.21;nan;100705.91;5069295;28;20047;-49
2023/04/14 10:52:02;;;;;;;3.92;1.77;;;;;;;21.48;nan;100772.50;5070537;28;20029;-47
2023/04/14 10:55:00;;;;;;;3.27;1.33;;;;;;;20.95;nan;100726.63;5070373;28;20075;-48
2023/04/14 10:57:29;;;;;;;3.17;1.50;;;;;;;20.75;nan;100780.81;5070263;28;20032;-46
2023/04/14 10:59:58;;;;;;;3.55;1.48;;;;;;;20.89;nan;100763.69;5070377;28;20121;-51
2023/04/14 11:02:28;;;;;;;6.07;2.28;;;;;;;20.14;nan;100699.78;5069062;28;20033;-45
2023/04/14 11:05:05;;;;;;;4.38;1.67;;;;;;;20.58;nan;100770.50;5070016;28;20040;-52
2023/04/14 11:07:45;;;;;;;6.10;2.17;;;;;;;21.00;nan;100769.94;5069964;28;20128;-44
2023/04/14 11:10:23;;;;;;;3.63;1.73;;;;;;;21.63;nan;100772.13;5069125;28;20127;-49
2023/04/14 11:12:54;;;;;;;3.75;1.80;;;;;;;21.25;nan;100777.81;5070429;28;20049;-46
2023/04/14 11:15:19;;;;;;;3.15;1.48;;;;;;;20.57;nan;100764.31;5070285;28;20480;-51
2023/04/14 11:17:44;;;;;;;3.55;1.65;;;;;;;19.53;nan;100759.47;5068956;28;20036;-49
2023/04/14 11:20:22;;;;;;;2.92;1.50;;;;;;;18.78;nan;100768.25;5070197;28;20035;-50
2023/04/14 11:22:49;;;;;;;3.13;1.33;;;;;;;19.32;nan;100709.38;5070141;28;20419;-49
2023/04/14 11:25:19;;;;;;;5.88;1.98;;;;;;;20.14;nan;100704.28;5069988;28;20434;-45
2023/04/14 11:27:47;;;;;;;4.18;1.70;;;;;;;20.30;nan;100747.66;5069948;28;20480;-52
2023/04/14 11:30:17;;;;;;;3.88;1.70;;;;;;;19.24;nan;100695.72;5068789;28;20135;-46
2023/04/14 11:32:50;;;;;;;4.63;1.58;;;;;;;18.80;nan;100768.13;5070296;28;20028;-49
2023/04/14 11:35:20;;;;;;;4.78;1.98;;;;;;;18.92;nan;100767.31;5069597;28;20036;-48
2023/04/14 11:37:45;;;;;;;3.25;1.52;;;;;;;19.11;nan;100703.75;5068750;28;20060;-47
2023/04/14 11:40:12;;;;;;;4.00;1.38;;;;;;;20.79;nan;100704.69;5069654;28;20435;-48
2023/04/14 11:42:37;;;;;;;3.90;1.50;;;;;;;22.04;nan;100690.25;5085119;28;20041;-49
2023/04/14 11:45:04;;;;;;;4.18;1.55;;;;;;;22.90;nan;100764.31;5053909;28;20483;-49